createdAt,value
2018-03-26T00:00:16.678Z,70.93
2018-03-26T00:02:46.153Z,74.10
2018-03-26T00:05:15.622Z,74.10
2018-03-26T00:07:45.111Z,78.23
2018-03-26T00:10:14.579Z,76.13
2018-03-26T00:12:44.063Z,80.10
2018-03-26T00:15:13.533Z,71.77
2018-03-26T00:17:43.017Z,80.97
2018-03-26T00:20:12.503Z,77.00
2018-03-26T00:22:41.990Z,76.00
2018-03-26T00:25:11.458Z,81.10
2018-03-26T00:27:40.950Z,79.87
2018-03-26T00:30:10.397Z,77.17
2018-03-26T00:32:39.881Z,80.00
2018-03-26T00:35:09.353Z,80.10
2018-03-26T00:37:38.840Z,81.53
2018-03-26T00:40:08.297Z,80.20
2018-03-26T00:42:37.769Z,77.20
2018-03-26T00:45:07.245Z,80.03
2018-03-26T00:47:36.731Z,82.53
2018-03-26T00:50:06.206Z,83.50
2018-03-26T00:52:35.687Z,80.23
2018-03-26T00:55:05.178Z,86.67
2018-03-26T00:57:34.644Z,82.87
2018-03-26T01:00:04.119Z,85.77
2018-03-26T06:01:38.022Z,49.37
2018-03-26T06:04:07.514Z,55.13
2018-03-26T06:06:36.981Z,56.50
2018-03-26T06:09:06.458Z,65.50
2018-03-26T06:11:35.919Z,58.37
2018-03-26T06:14:05.402Z,58.20
2018-03-26T06:16:49.760Z,56.03
2018-03-26T06:19:19.254Z,59.07
2018-03-26T06:21:48.727Z,63.17
2018-03-26T06:24:18.217Z,50.80
2018-03-26T06:26:47.682Z,53.40
2018-03-26T06:29:17.169Z,53.03
2018-03-26T06:31:46.643Z,55.03
2018-03-26T06:34:16.144Z,55.07
2018-03-26T06:37:00.493Z,53.30
2018-03-26T06:39:29.985Z,52.00
2018-03-26T06:41:59.454Z,50.27
2018-03-26T06:44:28.929Z,40.47
2018-03-26T06:46:58.407Z,46.73
2018-03-26T06:49:27.881Z,46.87
2018-03-26T06:51:57.391Z,42.87
2018-03-26T06:54:26.865Z,47.20
2018-03-26T06:56:56.329Z,45.50
2018-03-26T06:59:25.852Z,49.07
2018-03-26T07:01:55.289Z,44.13
2018-03-26T07:04:24.785Z,49.80
2018-03-26T07:06:54.247Z,50.23
2018-03-26T07:09:23.704Z,51.00
2018-03-26T07:11:53.199Z,45.87
2018-03-26T07:14:22.651Z,48.97
2018-03-26T07:16:52.149Z,49.30
2018-03-26T07:19:21.631Z,47.90
2018-03-26T07:21:51.101Z,46.83
2018-03-26T07:24:20.583Z,42.70
2018-03-26T07:26:50.082Z,43.63
2018-03-26T07:29:19.542Z,41.97
2018-03-26T07:31:49.021Z,46.60
2018-03-26T07:34:18.498Z,38.73
2018-03-26T07:36:47.982Z,39.17
2018-03-26T07:39:17.446Z,41.97
2018-03-26T07:41:46.927Z,41.03
2018-03-26T07:44:16.401Z,39.07
2018-03-26T07:46:45.869Z,36.77
2018-03-26T07:49:15.348Z,31.83
2018-03-26T07:51:44.833Z,36.63
2018-03-26T07:54:14.301Z,34.70
2018-03-26T07:56:43.774Z,31.70
2018-03-26T07:59:13.241Z,36.10
2018-03-26T08:01:42.740Z,30.00
2018-03-26T08:04:13.363Z,30.80
2018-03-26T08:06:43.182Z,32.27
2018-03-26T08:09:12.706Z,19.63
2018-03-26T08:11:42.731Z,23.47
2018-03-26T08:14:12.290Z,23.67
2018-03-26T08:16:42.215Z,17.50
2018-03-26T08:19:12.286Z,24.77
2018-03-26T08:21:41.873Z,31.93
2018-03-26T08:24:11.411Z,35.23
2018-03-26T08:26:41.513Z,38.37
2018-03-26T08:29:11.477Z,37.53
2018-03-26T08:31:41.047Z,39.87
2018-03-26T08:34:10.524Z,34.73
2018-03-26T08:36:40.003Z,35.23
2018-03-26T08:39:09.481Z,35.30
2018-03-26T08:41:38.966Z,35.53
2018-03-26T08:44:08.429Z,36.90
2018-03-26T08:46:37.928Z,39.53
2018-03-26T08:49:07.890Z,41.03
2018-03-26T08:51:38.084Z,40.87
2018-03-26T08:54:08.087Z,39.47
2018-03-26T08:56:38.120Z,40.50
2018-03-26T08:59:08.293Z,42.13
2018-03-26T09:01:37.768Z,39.67
2018-03-26T09:04:07.328Z,37.83
2018-03-26T09:06:36.802Z,38.87
2018-03-26T09:09:06.271Z,36.03
2018-03-26T09:11:35.788Z,36.77
2018-03-26T09:14:05.248Z,39.03
2018-03-26T09:16:34.721Z,32.87
2018-03-26T09:19:05.057Z,35.37
2018-03-26T09:21:34.549Z,38.57
2018-03-26T09:24:04.044Z,39.93
2018-03-26T09:26:33.507Z,40.23
2018-03-26T09:29:03.026Z,38.80
2018-03-26T09:31:32.498Z,38.17
2018-03-26T09:34:10.045Z,37.07
2018-03-26T09:36:39.520Z,37.70
2018-03-26T09:39:08.984Z,32.13
2018-03-26T09:41:38.482Z,37.23
2018-03-26T09:44:07.950Z,34.10
2018-03-26T09:46:37.413Z,34.43
2018-03-26T09:49:06.905Z,37.90
2018-03-26T09:51:36.374Z,36.13
2018-03-26T09:54:05.846Z,34.67
2018-03-26T09:56:35.333Z,31.90
2018-03-26T09:59:04.801Z,28.73
2018-03-26T10:01:39.916Z,29.27
2018-03-26T10:04:09.396Z,36.50
2018-03-26T10:06:42.316Z,35.27
2018-03-26T10:09:11.811Z,31.53
2018-03-26T10:11:41.291Z,32.20
2018-03-26T10:14:10.812Z,25.43
2018-03-26T10:16:40.253Z,18.53
2018-03-26T10:19:09.730Z,18.47
2018-03-26T10:21:39.191Z,31.37
2018-03-26T10:24:08.690Z,35.53
2018-03-26T19:22:20.135Z,21.50
2018-03-26T19:24:49.597Z,18.13
2018-03-26T19:27:19.088Z,17.40
2018-03-26T19:29:48.560Z,26.57
2018-03-26T19:32:18.092Z,23.03
2018-03-26T19:34:47.550Z,21.30
2018-03-26T19:37:17.012Z,21.37
2018-03-26T19:39:48.225Z,22.07
2018-03-26T19:42:17.733Z,20.90
2018-03-26T19:44:47.260Z,22.80
2018-03-26T19:47:16.962Z,20.60
2018-03-26T19:49:46.420Z,20.77
2018-03-26T19:52:16.088Z,19.47
2018-03-26T19:54:45.561Z,24.73
2018-03-26T19:57:15.029Z,21.90
2018-03-26T19:59:44.497Z,22.73
2018-03-26T20:02:13.976Z,22.93
2018-03-26T20:04:43.522Z,20.93
2018-03-26T20:07:12.971Z,20.23
2018-03-26T20:09:42.471Z,18.10
2018-03-26T20:12:12.066Z,20.97
2018-03-26T20:14:41.532Z,16.13
2018-03-26T20:17:11.020Z,19.07
2018-03-26T20:19:40.490Z,16.10
2018-03-26T20:22:09.966Z,18.23
2018-03-26T20:24:39.441Z,18.33
2018-03-26T20:27:08.905Z,19.27
2018-03-26T20:29:38.487Z,16.17
2018-03-26T20:32:09.151Z,17.67
2018-03-26T20:34:38.666Z,16.43
2018-03-26T20:37:08.184Z,20.73
2018-03-26T20:39:37.653Z,18.63
2018-03-26T20:42:07.145Z,19.50
2018-03-26T20:44:36.620Z,21.37
2018-03-26T20:47:06.108Z,21.73
2018-03-26T20:49:35.573Z,20.10
2018-03-26T20:52:05.044Z,18.63
2018-03-26T20:54:34.521Z,18.70
2018-03-26T20:57:04.121Z,17.83
2018-03-26T20:59:33.671Z,18.57
2018-03-26T21:02:03.583Z,16.17
2018-03-26T21:04:33.086Z,16.03
2018-03-26T21:07:02.686Z,17.00
2018-03-26T21:09:32.171Z,15.03
2018-03-26T21:12:01.636Z,13.23
2018-03-26T21:14:31.179Z,15.17
2018-03-26T21:17:00.904Z,15.43
2018-03-26T21:19:30.561Z,13.73
2018-03-26T21:22:00.426Z,13.90
2018-03-26T21:24:31.089Z,13.47
2018-03-26T21:27:00.972Z,11.97
2018-03-26T21:29:30.676Z,12.97
2018-03-26T21:32:00.260Z,12.90
2018-03-26T21:34:30.101Z,15.60
2018-03-26T21:37:00.007Z,14.13
2018-03-26T21:39:29.568Z,17.07
2018-03-26T21:41:59.368Z,14.57
2018-03-26T21:44:28.840Z,15.50
2018-03-26T21:46:58.308Z,16.93
2018-03-26T21:49:27.792Z,16.30
2018-03-26T21:51:57.260Z,17.33
2018-03-26T21:54:26.728Z,18.80
2018-03-26T21:56:56.217Z,17.27
2018-03-26T21:59:25.811Z,16.00
2018-03-26T22:01:55.465Z,17.77
2018-03-26T22:04:25.057Z,20.17
2018-03-26T22:06:54.489Z,20.57
2018-03-26T22:09:23.966Z,17.90
2018-03-26T22:11:53.442Z,18.50
2018-03-26T22:14:22.908Z,18.93
2018-03-26T22:16:52.373Z,18.10
2018-03-26T22:19:22.780Z,21.27
2018-03-26T22:21:52.263Z,21.20
2018-03-26T22:24:21.724Z,23.90
2018-03-26T22:26:51.197Z,21.93
2018-03-26T22:29:20.660Z,24.03
2018-03-26T22:31:50.120Z,23.80
2018-03-26T22:34:19.612Z,24.97
2018-03-26T22:36:49.063Z,22.30
2018-03-26T22:39:18.553Z,22.20
2018-03-26T22:41:48.008Z,22.00
2018-03-26T22:44:17.494Z,24.73
2018-03-26T22:46:46.965Z,24.27
2018-03-26T22:49:16.456Z,20.77
2018-03-26T22:51:45.929Z,24.70
2018-03-26T22:54:15.400Z,22.60
2018-03-26T22:56:44.884Z,22.87
2018-03-26T22:59:14.338Z,23.30
2018-03-26T23:01:43.821Z,26.17
2018-03-26T23:04:13.279Z,24.07
2018-03-26T23:06:42.760Z,24.13
2018-03-26T23:09:12.220Z,26.83
2018-03-26T23:11:41.694Z,23.53
2018-03-26T23:14:11.165Z,24.50
2018-03-26T23:16:40.636Z,25.80
2018-03-26T23:19:10.092Z,27.47
2018-03-26T23:21:39.610Z,30.73
2018-03-26T23:24:09.077Z,29.30
2018-03-26T23:26:38.567Z,27.40
2018-03-26T23:29:08.017Z,27.47
2018-03-26T23:31:37.494Z,38.40
2018-03-26T23:34:07.687Z,40.07
2018-03-26T23:36:37.293Z,33.57
2018-03-26T23:39:06.760Z,49.17
2018-03-26T23:41:36.236Z,38.53
2018-03-26T23:44:05.694Z,46.17
2018-03-26T23:46:35.169Z,96.40
2018-03-26T23:49:04.635Z,81.23
2018-03-26T23:51:34.157Z,76.17
2018-03-26T23:54:03.634Z,156.60
2018-03-26T23:56:33.126Z,162.17
2018-03-26T23:59:02.600Z,156.13
